Time;durP1;ratioP1;P1;durP2;ratioP2;P2;SDS_P1;SDS_P2;PMS_P1;PMS_P2;Temp;Humidity;BMP_temperature;BMP_pressure;BME280_temperature;BME280_humidity;BME280_pressure;Samples;Min_cycle;Max_cycle;Signal;HPM_P1;HPM_P2
2022/09/04 00:00:36;;;;;;;3.58;1.85;;;17.10;99.90;;;;;;5002316;28;20033;-58
2022/09/04 00:03:14;;;;;;;5.68;2.00;;;17.10;99.90;;;;;;5002518;28;20382;-54
2022/09/04 00:05:51;;;;;;;3.42;1.65;;;17.00;99.90;;;;;;5004421;28;20164;-54
2022/09/04 00:08:25;;;;;;;6.32;1.98;;;17.10;99.90;;;;;;5011037;28;20062;-54
2022/09/04 00:11:06;;;;;;;4.05;1.80;;;17.00;99.90;;;;;;5004430;28;20042;-54
2022/09/04 00:13:35;;;;;;;4.70;1.90;;;17.00;99.90;;;;;;5006344;28;20041;-54
2022/09/04 00:16:18;;;;;;;4.47;2.00;;;17.00;99.90;;;;;;5006445;28;20053;-54
2022/09/04 00:19:03;;;;;;;3.83;1.65;;;16.90;99.90;;;;;;5005390;28;20421;-54
2022/09/04 00:21:52;;;;;;;3.28;1.80;;;16.80;99.90;;;;;;5006472;28;20049;-56
2022/09/04 00:24:23;;;;;;;3.00;1.60;;;16.80;99.90;;;;;;5006198;28;20096;-54
2022/09/04 00:27:02;;;;;;;2.80;1.70;;;16.70;99.90;;;;;;5004545;28;20062;-54
2022/09/04 00:30:00;;;;;;;4.75;1.92;;;16.70;99.90;;;;;;5006398;28;20049;-54
2022/09/04 00:32:44;;;;;;;4.22;1.77;;;16.70;99.90;;;;;;5004472;28;20527;-54
2022/09/04 00:35:25;;;;;;;3.70;2.28;;;16.70;99.90;;;;;;5005080;28;20057;-53
2022/09/04 00:38:11;;;;;;;5.40;1.80;;;16.60;99.90;;;;;;5005724;28;20052;-54
2022/09/04 00:40:42;;;;;;;4.57;2.00;;;16.60;99.90;;;;;;5005155;28;20149;-54
2022/09/04 00:43:39;;;;;;;3.60;1.92;;;16.60;99.90;;;;;;5005865;28;20038;-54
2022/09/04 00:46:23;;;;;;;3.90;1.70;;;16.60;99.90;;;;;;5005167;28;20089;-54
2022/09/04 00:49:28;;;;;;;5.00;2.00;;;16.60;99.90;;;;;;5004752;28;20129;-54
2022/09/04 00:52:31;;;;;;;6.75;2.15;;;16.60;99.90;;;;;;5005199;28;20041;-54
2022/09/04 00:55:20;;;;;;;8.23;2.03;;;16.50;99.90;;;;;;5005624;28;20128;-54
2022/09/04 00:58:12;;;;;;;5.88;2.20;;;16.50;99.90;;;;;;4996899;28;20096;-54
2022/09/04 01:00:38;;;;;;;4.28;2.10;;;16.50;99.90;;;;;;5003831;28;20096;-57
2022/09/04 01:03:06;;;;;;;7.43;2.15;;;16.50;99.90;;;;;;5004142;28;20493;-53
2022/09/04 01:05:50;;;;;;;3.85;2.10;;;16.50;99.90;;;;;;5007456;28;20503;-53
2022/09/04 01:08:39;;;;;;;5.35;2.05;;;16.40;99.90;;;;;;5014013;28;20153;-54
2022/09/04 01:11:26;;;;;;;4.28;2.00;;;16.40;99.90;;;;;;5004059;28;20054;-52
2022/09/04 01:14:11;;;;;;;3.75;2.10;;;16.40;99.90;;;;;;5004468;28;20296;-54
2022/09/04 01:17:01;;;;;;;3.83;2.00;;;16.40;99.90;;;;;;5004749;28;20046;-54
2022/09/04 01:19:56;;;;;;;4.18;2.00;;;16.30;99.90;;;;;;5004874;28;20050;-53
2022/09/04 01:22:50;;;;;;;3.72;1.98;;;16.20;99.90;;;;;;4977055;28;20073;-54
2022/09/04 01:25:46;;;;;;;4.45;2.45;;;16.10;99.90;;;;;;5004898;28;20477;-53
2022/09/04 01:28:29;;;;;;;3.58;2.15;;;16.00;99.90;;;;;;5005127;28;20053;-53
2022/09/04 01:31:10;;;;;;;3.72;1.80;;;16.10;99.90;;;;;;5002945;28;20076;-54
2022/09/04 01:34:02;;;;;;;6.40;1.95;;;16.00;99.90;;;;;;5003805;28;20489;-55
2022/09/04 01:36:52;;;;;;;4.43;2.22;;;15.80;99.90;;;;;;5003700;28;20556;-53
2022/09/04 01:39:21;;;;;;;5.15;1.80;;;15.70;99.90;;;;;;5004006;28;20054;-53
2022/09/04 01:42:16;;;;;;;2.75;1.80;;;15.80;99.90;;;;;;5004420;28;20218;-52
2022/09/04 01:44:42;;;;;;;3.10;2.10;;;15.80;99.90;;;;;;4997518;28;20473;-51
2022/09/04 01:47:37;;;;;;;5.05;2.20;;;15.70;99.90;;;;;;5004738;28;20109;-57
2022/09/04 01:50:13;;;;;;;3.90;2.45;;;15.70;99.90;;;;;;4989688;28;20452;-54
2022/09/04 01:52:45;;;;;;;5.00;2.10;;;15.60;99.90;;;;;;5004220;28;20062;-53
2022/09/04 01:55:26;;;;;;;5.75;2.10;;;15.60;99.90;;;;;;5004184;28;20050;-54
2022/09/04 01:58:06;;;;;;;4.43;2.20;;;15.70;99.90;;;;;;5004437;28;20061;-53
2022/09/04 02:00:44;;;;;;;6.93;2.00;;;15.50;99.90;;;;;;5003722;28;20048;-55
2022/09/04 02:03:38;;;;;;;3.83;2.03;;;15.50;99.90;;;;;;5002434;28;20092;-56
2022/09/04 02:06:13;;;;;;;3.67;2.00;;;15.40;99.90;;;;;;5006740;28;20057;-52
2022/09/04 02:08:42;;;;;;;3.78;2.08;;;15.40;99.90;;;;;;5010111;28;20054;-53
2022/09/04 02:11:26;;;;;;;3.55;2.05;;;15.30;99.90;;;;;;5016445;28;20125;-54
2022/09/04 02:14:09;;;;;;;3.42;2.03;;;15.20;99.90;;;;;;5023501;28;20043;-54
2022/09/04 02:16:41;;;;;;;3.55;2.20;;;15.20;99.90;;;;;;5023329;28;20164;-54
2022/09/04 02:19:41;;;;;;;3.72;2.08;;;15.20;99.90;;;;;;5022821;28;20060;-53
2022/09/04 02:22:26;;;;;;;4.38;2.08;;;15.10;99.90;;;;;;5022304;28;20060;-54
2022/09/04 02:24:58;;;;;;;3.63;2.15;;;15.10;99.90;;;;;;5022812;28;20124;-54
2022/09/04 02:27:41;;;;;;;7.10;2.03;;;15.10;99.90;;;;;;5022115;28;20060;-54
2022/09/04 02:30:10;;;;;;;6.13;1.80;;;14.90;99.90;;;;;;5023281;28;20145;-55
2022/09/04 02:33:17;;;;;;;3.80;2.20;;;15.10;99.90;;;;;;5022543;28;20049;-54
2022/09/04 02:35:56;;;;;;;4.05;1.90;;;15.10;99.90;;;;;;5000825;28;20054;-53
2022/09/04 02:38:50;;;;;;;3.55;2.10;;;15.00;99.90;;;;;;5023522;28;20053;-55
2022/09/04 02:41:49;;;;;;;4.18;2.22;;;15.00;99.90;;;;;;5023261;28;20195;-53
2022/09/04 02:44:42;;;;;;;3.97;2.17;;;15.10;99.90;;;;;;5021984;28;20049;-55
2022/09/04 02:47:21;;;;;;;4.55;1.90;;;15.10;99.90;;;;;;5022694;28;20912;-54
2022/09/04 02:50:13;;;;;;;4.35;1.95;;;15.10;99.90;;;;;;5020855;28;20130;-56
2022/09/04 02:52:48;;;;;;;3.83;2.20;;;15.00;99.90;;;;;;5022164;28;20041;-54
2022/09/04 02:55:33;;;;;;;7.25;2.20;;;15.00;99.90;;;;;;5021729;28;20042;-54
2022/09/04 02:58:22;;;;;;;4.90;2.45;;;15.00;99.90;;;;;;5023051;28;20049;-54
2022/09/04 03:00:56;;;;;;;4.65;2.00;;;15.00;99.90;;;;;;5022755;28;20037;-54
2022/09/04 03:03:46;;;;;;;6.05;2.30;;;15.00;99.90;;;;;;5022147;28;20263;-55
2022/09/04 03:06:21;;;;;;;3.95;2.13;;;15.00;99.90;;;;;;5007686;28;20066;-54
2022/09/04 03:09:13;;;;;;;5.22;1.98;;;15.00;99.90;;;;;;5007847;28;20136;-54
2022/09/04 03:12:20;;;;;;;3.45;2.03;;;14.90;99.90;;;;;;5002560;28;20053;-54
2022/09/04 03:14:52;;;;;;;4.70;2.30;;;14.90;99.90;;;;;;5002620;28;20089;-55
2022/09/04 03:17:23;;;;;;;3.30;1.92;;;14.80;99.90;;;;;;5003153;28;20096;-55
2022/09/04 03:20:22;;;;;;;6.38;2.30;;;14.80;99.90;;;;;;5000780;28;20048;-55
2022/09/04 03:23:27;;;;;;;4.22;2.30;;;14.80;99.90;;;;;;5002592;28;20038;-52
2022/09/04 03:26:18;;;;;;;3.65;2.38;;;14.90;99.90;;;;;;4991769;28;20261;-54
2022/09/04 03:28:50;;;;;;;6.55;2.30;;;14.80;99.90;;;;;;4997046;28;20404;-55
2022/09/04 03:31:27;;;;;;;6.72;2.53;;;14.80;99.90;;;;;;5003206;28;20085;-54
2022/09/04 03:34:18;;;;;;;4.20;2.42;;;14.80;99.90;;;;;;5001657;28;20073;-53
2022/09/04 03:37:28;;;;;;;6.03;2.45;;;14.70;99.90;;;;;;5002648;28;20046;-55
2022/09/04 03:40:00;;;;;;;5.88;2.60;;;14.60;99.90;;;;;;4941262;29;20055;-55
2022/09/04 03:42:50;;;;;;;4.18;2.35;;;14.60;99.90;;;;;;4941539;29;20051;-55
2022/09/04 03:45:15;;;;;;;4.28;2.08;;;14.60;99.90;;;;;;4987678;28;20089;-54
2022/09/04 03:47:50;;;;;;;3.70;2.33;;;14.60;99.90;;;;;;5005827;28;20041;-54
2022/09/04 03:50:48;;;;;;;3.90;2.05;;;14.60;99.90;;;;;;5005312;28;20053;-54
2022/09/04 03:53:22;;;;;;;6.13;2.42;;;14.50;99.90;;;;;;5006413;28;20038;-53
2022/09/04 03:56:06;;;;;;;5.65;2.55;;;14.50;99.90;;;;;;5005319;28;20128;-56
2022/09/04 03:58:38;;;;;;;4.28;2.30;;;14.60;99.90;;;;;;5005087;28;20408;-56
2022/09/04 04:01:12;;;;;;;8.05;2.42;;;14.60;99.90;;;;;;5006542;28;20049;-54
2022/09/04 04:04:02;;;;;;;4.82;2.72;;;14.60;99.90;;;;;;5004978;28;20136;-55
2022/09/04 04:06:42;;;;;;;5.70;2.55;;;14.60;99.90;;;;;;5013462;28;20045;-55
2022/09/04 04:09:17;;;;;;;5.03;2.70;;;14.60;99.90;;;;;;5008384;28;20046;-55
2022/09/04 04:12:11;;;;;;;5.63;2.40;;;14.60;99.90;;;;;;5006109;28;20124;-54
2022/09/04 04:15:14;;;;;;;3.65;2.47;;;14.50;99.90;;;;;;5005971;28;20417;-55
2022/09/04 04:17:58;;;;;;;6.18;2.60;;;14.50;99.90;;;;;;5003786;28;20129;-54
2022/09/04 04:20:35;;;;;;;3.47;2.45;;;14.40;99.90;;;;;;5006405;28;20068;-55
2022/09/04 04:23:27;;;;;;;5.10;2.70;;;14.50;99.90;;;;;;5006484;28;20058;-54
2022/09/04 04:26:25;;;;;;;7.10;2.90;;;14.40;99.90;;;;;;5005494;28;20136;-54
2022/09/04 04:29:23;;;;;;;4.88;2.22;;;14.30;99.90;;;;;;5005611;28;20046;-55
2022/09/04 04:32:09;;;;;;;6.95;2.60;;;14.40;99.90;;;;;;5005554;28;20096;-54
2022/09/04 04:35:02;;;;;;;5.80;2.42;;;14.20;99.90;;;;;;5004562;28;20100;-54
2022/09/04 04:37:58;;;;;;;5.32;2.70;;;14.10;99.90;;;;;;5006107;28;20089;-55
2022/09/04 04:40:58;;;;;;;4.65;2.40;;;14.20;99.90;;;;;;5005588;28;20185;-55
2022/09/04 04:43:50;;;;;;;3.90;2.47;;;14.30;99.90;;;;;;5005771;28;20054;-53
2022/09/04 04:46:28;;;;;;;3.97;2.45;;;14.20;99.90;;;;;;5004328;28;20050;-56
2022/09/04 04:49:25;;;;;;;5.55;2.47;;;14.30;99.90;;;;;;5004615;28;20089;-55
2022/09/04 04:52:09;;;;;;;4.55;2.42;;;14.20;99.90;;;;;;5003794;28;20065;-55
2022/09/04 04:54:41;;;;;;;5.13;2.50;;;14.10;99.90;;;;;;5004925;28;20050;-55
2022/09/04 04:57:12;;;;;;;5.80;2.75;;;14.20;99.90;;;;;;5004496;28;20566;-55
2022/09/04 05:00:18;;;;;;;5.97;2.53;;;14.30;99.90;;;;;;5005257;28;20435;-52
2022/09/04 05:03:05;;;;;;;4.13;2.60;;;14.30;99.90;;;;;;5004554;28;20050;-53
2022/09/04 05:05:54;;;;;;;3.88;2.60;;;14.30;99.90;;;;;;5007903;28;21232;-54
2022/09/04 05:08:46;;;;;;;4.22;2.60;;;14.30;99.90;;;;;;5013672;28;20064;-55
2022/09/04 05:11:35;;;;;;;5.47;2.70;;;14.40;99.90;;;;;;5004123;28;20046;-54
2022/09/04 05:14:22;;;;;;;6.55;2.67;;;14.50;99.90;;;;;;5005363;28;20045;-55
2022/09/04 05:17:25;;;;;;;3.78;2.45;;;14.50;99.90;;;;;;5004979;28;20074;-55
2022/09/04 05:20:14;;;;;;;4.50;2.20;;;14.50;99.90;;;;;;5003443;28;20054;-54
2022/09/04 05:23:09;;;;;;;4.60;2.38;;;14.50;99.90;;;;;;5004681;28;20097;-55
2022/09/04 05:25:49;;;;;;;3.47;2.30;;;14.50;99.90;;;;;;5004216;28;20037;-55
2022/09/04 05:28:34;;;;;;;3.60;2.70;;;14.50;99.90;;;;;;5004771;28;20699;-53
2022/09/04 05:31:16;;;;;;;4.67;2.60;;;14.50;99.90;;;;;;5005085;28;20065;-54
2022/09/04 05:34:06;;;;;;;6.30;2.72;;;14.50;99.90;;;;;;4986203;28;20077;-54
2022/09/04 05:36:43;;;;;;;3.35;2.30;;;14.50;99.90;;;;;;5004773;28;20042;-56
2022/09/04 05:39:16;;;;;;;4.63;2.80;;;14.50;99.90;;;;;;5004307;28;20058;-57
2022/09/04 05:41:52;;;;;;;4.57;2.50;;;14.40;99.90;;;;;;5004236;28;20057;-55
2022/09/04 05:44:39;;;;;;;5.20;2.30;;;14.50;99.90;;;;;;5004816;28;20473;-53
2022/09/04 05:47:26;;;;;;;5.32;2.60;;;14.50;99.90;;;;;;5004325;28;20042;-54
2022/09/04 05:50:07;;;;;;;4.35;2.30;;;14.40;99.90;;;;;;5003722;28;20057;-55
2022/09/04 05:52:38;;;;;;;5.38;2.42;;;14.50;99.90;;;;;;5002989;28;20067;-55
2022/09/04 05:55:41;;;;;;;6.40;2.70;;;14.70;99.90;;;;;;5004205;28;20052;-55
2022/09/04 05:58:07;;;;;;;5.00;2.40;;;14.70;99.90;;;;;;4981796;28;20058;-54
2022/09/04 06:00:58;;;;;;;4.40;2.40;;;14.80;99.90;;;;;;5002696;28;20179;-53
2022/09/04 06:03:50;;;;;;;3.42;2.40;;;14.90;99.90;;;;;;5003670;28;20053;-53
2022/09/04 06:06:29;;;;;;;5.43;2.70;;;14.90;99.90;;;;;;5008117;28;20075;-54
2022/09/04 06:09:06;;;;;;;5.70;2.85;;;15.00;99.90;;;;;;5008101;28;20085;-54
2022/09/04 06:11:50;;;;;;;4.38;2.80;;;15.20;99.90;;;;;;5003849;28;20050;-52
2022/09/04 06:14:26;;;;;;;4.97;2.78;;;15.50;99.90;;;;;;5003594;28;20045;-55
2022/09/04 06:17:20;;;;;;;5.60;2.80;;;15.80;99.90;;;;;;5002255;28;20053;-53
2022/09/04 06:20:09;;;;;;;4.15;2.45;;;16.20;99.90;;;;;;5003324;28;20054;-53
2022/09/04 06:22:55;;;;;;;6.07;2.88;;;16.40;99.90;;;;;;5021974;28;20048;-55
2022/09/04 06:25:55;;;;;;;6.45;2.50;;;16.80;99.90;;;;;;5041978;28;20120;-54
2022/09/04 06:28:34;;;;;;;3.38;2.55;;;16.20;99.90;;;;;;5043518;28;20055;-57
2022/09/04 06:31:14;;;;;;;5.28;2.47;;;17.20;99.90;;;;;;5043862;28;20055;-55
2022/09/04 06:33:56;;;;;;;5.35;2.47;;;17.40;99.90;;;;;;5036255;28;20055;-55
2022/09/04 06:36:47;;;;;;;3.88;2.45;;;17.50;99.90;;;;;;5009959;28;20329;-54
2022/09/04 06:39:31;;;;;;;4.15;2.75;;;17.00;99.90;;;;;;5023028;28;20057;-55
2022/09/04 06:42:10;;;;;;;3.95;2.60;;;16.90;99.90;;;;;;5022695;28;20408;-52
2022/09/04 06:45:13;;;;;;;5.72;2.70;;;16.90;99.90;;;;;;5023158;28;20463;-54
2022/09/04 06:48:07;;;;;;;7.18;2.42;;;17.00;99.90;;;;;;5022166;28;20077;-54
2022/09/04 06:50:55;;;;;;;6.38;2.60;;;17.30;99.90;;;;;;5022787;28;20111;-56
2022/09/04 06:53:36;;;;;;;4.65;2.47;;;17.30;99.90;;;;;;5021421;28;20053;-55
2022/09/04 06:56:12;;;;;;;7.40;2.70;;;17.50;99.90;;;;;;5023331;28;20059;-55
2022/09/04 06:58:59;;;;;;;6.60;2.60;;;18.00;99.90;;;;;;5022605;28;20128;-57
2022/09/04 07:01:39;;;;;;;6.43;2.60;;;17.70;99.90;;;;;;5022952;28;20042;-55
2022/09/04 07:04:40;;;;;;;5.07;2.50;;;18.30;99.90;;;;;;5022152;28;20083;-54
2022/09/04 07:07:19;;;;;;;3.58;2.85;;;18.30;99.90;;;;;;5016011;28;20060;-56
2022/09/04 07:09:51;;;;;;;5.28;2.75;;;18.50;99.90;;;;;;5002924;28;20050;-53
2022/09/04 07:12:50;;;;;;;5.57;2.85;;;18.40;99.90;;;;;;5003192;28;20084;-53
2022/09/04 07:15:21;;;;;;;6.88;2.90;;;17.90;99.90;;;;;;5003086;28;20141;-54
2022/09/04 07:18:09;;;;;;;5.68;2.75;;;18.30;99.90;;;;;;5002081;28;20515;-53
2022/09/04 07:21:18;;;;;;;5.40;2.90;;;18.40;99.90;;;;;;5002667;28;20045;-53
2022/09/04 07:24:05;;;;;;;6.57;2.70;;;18.30;99.90;;;;;;4994593;28;20050;-53
2022/09/04 07:26:55;;;;;;;3.88;2.75;;;19.10;99.90;;;;;;5002855;28;20041;-54
2022/09/04 07:29:28;;;;;;;4.35;2.50;;;18.80;99.90;;;;;;5003019;28;20089;-53
2022/09/04 07:32:02;;;;;;;3.90;2.90;;;19.10;99.90;;;;;;5001218;28;20095;-56
2022/09/04 07:34:52;;;;;;;5.90;3.38;;;19.40;99.90;;;;;;5002010;28;20042;-53
2022/09/04 07:37:30;;;;;;;4.70;2.50;;;19.80;99.90;;;;;;5002695;28;20072;-53
2022/09/04 07:40:10;;;;;;;4.45;2.60;;;19.90;99.90;;;;;;5000921;28;20185;-52
2022/09/04 07:43:07;;;;;;;6.97;2.92;;;20.40;99.90;;;;;;5002332;28;20064;-54
2022/09/04 07:45:38;;;;;;;7.28;2.60;;;20.00;99.90;;;;;;5003001;28;20085;-54
2022/09/04 07:48:13;;;;;;;6.95;2.65;;;20.20;99.90;;;;;;5002211;28;20062;-53
2022/09/04 07:51:09;;;;;;;4.70;2.80;;;20.60;99.90;;;;;;5002237;28;20400;-54
2022/09/04 07:53:53;;;;;;;4.70;2.30;;;20.30;99.90;;;;;;5002537;28;20512;-54
2022/09/04 07:56:53;;;;;;;3.60;2.47;;;20.90;99.90;;;;;;5002504;28;20412;-54
2022/09/04 07:59:44;;;;;;;5.65;2.75;;;21.20;99.90;;;;;;5002884;28;20057;-53
2022/09/04 08:02:15;;;;;;;4.95;2.53;;;21.30;99.90;;;;;;5001741;28;20548;-52
2022/09/04 08:04:50;;;;;;;4.90;2.70;;;21.40;99.90;;;;;;5002376;28;20050;-54
2022/09/04 08:07:20;;;;;;;;;;;21.30;99.90;;;;;;5012195;28;20481;-54
2022/09/04 08:10:20;;;;;;;5.93;2.75;;;21.10;99.90;;;;;;5002230;28;19928;-53
2022/09/04 08:13:21;;;;;;;4.20;2.60;;;21.10;99.90;;;;;;5002387;28;20122;-54
2022/09/04 08:15:56;;;;;;;4.65;2.92;;;20.80;99.90;;;;;;5002204;28;20042;-53
2022/09/04 08:18:49;;;;;;;6.93;2.70;;;20.30;99.90;;;;;;5000560;28;20048;-53
2022/09/04 08:21:35;;;;;;;7.53;2.95;;;20.30;99.90;;;;;;4979185;28;20432;-52
2022/09/04 08:24:28;;;;;;;8.15;2.78;;;20.20;99.90;;;;;;5001177;28;20052;-54
2022/09/04 08:27:39;;;;;;;6.45;2.88;;;20.20;99.90;;;;;;5002306;28;20099;-54
2022/09/04 08:30:07;;;;;;;6.43;3.03;;;20.10;99.90;;;;;;5002650;28;20050;-54
2022/09/04 08:32:44;;;;;;;7.63;2.80;;;19.90;99.90;;;;;;5004156;28;20105;-54
2022/09/04 08:35:22;;;;;;;4.47;2.97;;;20.10;99.90;;;;;;5005971;28;20466;-53
2022/09/04 08:37:56;;;;;;;5.07;2.58;;;20.00;99.90;;;;;;5005500;28;20049;-52
2022/09/04 08:40:41;;;;;;;;;;;20.20;99.90;;;;;;5006145;28;20072;-53
2022/09/04 08:43:29;;;;;;;3.90;2.47;;;20.30;99.90;;;;;;5005321;28;20320;-53
2022/09/04 08:46:16;;;;;;;6.80;2.60;;;20.50;99.90;;;;;;5005604;28;20065;-53
2022/09/04 08:49:09;;;;;;;6.22;2.75;;;20.80;99.90;;;;;;5005049;28;20050;-53
2022/09/04 08:52:03;;;;;;;5.88;2.65;;;20.80;99.90;;;;;;5013633;28;20080;-56
2022/09/04 08:55:04;;;;;;;7.10;2.80;;;21.00;99.90;;;;;;5012796;28;20073;-53
2022/09/04 08:57:38;;;;;;;4.97;2.40;;;21.40;99.90;;;;;;4995952;28;20061;-54
2022/09/04 09:00:14;;;;;;;3.65;2.55;;;22.10;99.90;;;;;;5024428;28;20084;-53
2022/09/04 09:03:07;;;;;;;6.80;2.50;;;22.40;99.90;;;;;;5024044;28;20050;-51
2022/09/04 09:05:57;;;;;;;7.85;2.55;;;23.00;99.90;;;;;;5021028;28;20037;-55
2022/09/04 09:08:46;;;;;;;5.32;2.45;;;23.10;99.90;;;;;;5016162;28;20500;-53
2022/09/04 09:11:33;;;;;;;4.43;2.40;;;23.30;99.90;;;;;;5024561;28;20041;-53
2022/09/04 09:14:11;;;;;;;3.97;2.28;;;23.50;99.90;;;;;;5022510;28;20053;-54
2022/09/04 09:17:05;;;;;;;3.65;2.25;;;23.90;99.90;;;;;;5023326;28;20045;-55
2022/09/04 09:19:38;;;;;;;5.00;2.22;;;23.20;99.90;;;;;;5024626;28;20053;-54
2022/09/04 09:22:04;;;;;;;4.80;2.53;;;23.80;99.90;;;;;;5024348;28;20053;-55
2022/09/04 09:25:06;;;;;;;5.38;2.65;;;23.70;99.90;;;;;;5024561;28;20047;-58
2022/09/04 09:27:46;;;;;;;7.70;2.50;;;23.60;99.90;;;;;;5024519;28;20045;-58
2022/09/04 09:30:18;;;;;;;5.78;2.72;;;23.80;99.90;;;;;;5024497;28;20088;-57
2022/09/04 09:32:55;;;;;;;4.15;2.50;;;24.00;99.90;;;;;;5023058;28;20412;-57
2022/09/04 09:35:24;;;;;;;7.55;2.80;;;23.90;99.90;;;;;;5024150;28;20505;-57
2022/09/04 09:38:01;;;;;;;4.82;2.15;;;23.90;99.90;;;;;;5024381;28;20084;-56
2022/09/04 09:41:02;;;;;;;6.50;2.53;;;24.20;99.90;;;;;;5024505;28;20053;-56
2022/09/04 09:43:47;;;;;;;5.88;2.47;;;23.90;99.90;;;;;;5024804;28;20081;-56
2022/09/04 09:46:52;;;;;;;5.75;2.25;;;24.20;99.90;;;;;;5024495;28;20049;-56
2022/09/04 09:49:56;;;;;;;3.22;2.25;;;24.30;99.90;;;;;;5024512;28;20045;-57
2022/09/04 09:53:10;;;;;;;5.13;2.40;;;24.70;99.90;;;;;;5023782;28;20198;-57
2022/09/04 09:55:55;;;;;;;4.90;2.38;;;24.80;99.90;;;;;;5018823;28;20443;-57
2022/09/04 09:58:29;;;;;;;5.85;2.30;;;24.80;99.90;;;;;;5022889;28;20054;-57
2022/09/04 10:01:20;;;;;;;5.60;2.53;;;24.80;99.90;;;;;;5023518;28;20053;-58
2022/09/04 10:04:10;;;;;;;5.30;2.03;;;25.10;99.90;;;;;;5023330;28;20443;-57
2022/09/04 10:06:43;;;;;;;7.43;2.40;;;25.00;99.90;;;;;;5016013;28;20061;-57
2022/09/04 10:09:21;;;;;;;3.13;2.10;;;24.80;99.90;;;;;;5005591;28;20425;-57
2022/09/04 10:12:08;;;;;;;3.90;1.85;;;24.60;99.90;;;;;;5003938;28;20054;-57
2022/09/04 10:14:45;;;;;;;4.13;2.45;;;24.30;99.90;;;;;;5003953;28;20412;-58
2022/09/04 10:17:49;;;;;;;3.15;2.00;;;24.70;99.90;;;;;;5003704;28;20060;-57
2022/09/04 10:20:41;;;;;;;4.35;2.03;;;24.40;99.90;;;;;;5004088;28;20129;-57
2022/09/04 10:23:26;;;;;;;4.63;2.35;;;24.70;99.90;;;;;;5003771;28;20052;-58
2022/09/04 10:26:16;;;;;;;5.28;2.00;;;25.00;99.90;;;;;;5003827;28;20209;-58
2022/09/04 10:28:58;;;;;;;4.88;2.28;;;25.30;99.90;;;;;;5003798;28;20096;-55
2022/09/04 10:31:57;;;;;;;4.35;2.30;;;25.70;99.90;;;;;;5003032;28;20041;-56
2022/09/04 10:34:49;;;;;;;4.25;2.17;;;25.80;99.90;;;;;;5003530;28;20046;-57
2022/09/04 10:37:52;;;;;;;4.63;1.95;;;26.00;99.90;;;;;;5003716;28;20056;-54
2022/09/04 10:40:45;;;;;;;3.95;2.00;;;25.70;99.90;;;;;;5003391;28;20050;-55
2022/09/04 10:43:51;;;;;;;3.90;2.80;;;25.80;99.90;;;;;;5002324;28;20381;-55
2022/09/04 10:46:50;;;;;;;6.28;2.10;;;25.80;99.90;;;;;;5002969;28;20048;-57
2022/09/04 10:49:44;;;;;;;2.97;1.95;;;25.70;99.90;;;;;;5003609;28;20133;-57
2022/09/04 10:52:27;;;;;;;4.97;2.20;;;26.00;99.90;;;;;;5001992;28;20672;-57
2022/09/04 10:55:25;;;;;;;6.28;2.20;;;26.20;99.90;;;;;;5001867;28;20104;-58
2022/09/04 10:58:22;;;;;;;5.13;2.08;;;26.30;99.90;;;;;;5003009;28;20042;-56
2022/09/04 11:01:07;;;;;;;3.35;1.80;;;26.30;99.90;;;;;;5003238;28;20745;-58
2022/09/04 11:04:12;;;;;;;5.30;2.10;;;26.30;99.90;;;;;;5002478;28;20159;-56
2022/09/04 11:06:52;;;;;;;4.88;2.30;;;25.90;99.90;;;;;;5008930;28;20053;-55
2022/09/04 11:09:30;;;;;;;3.70;2.03;;;26.60;99.90;;;;;;5004302;28;20148;-56
2022/09/04 11:12:28;;;;;;;6.22;2.50;;;26.30;99.90;;;;;;5002108;28;20057;-54
2022/09/04 11:15:17;;;;;;;2.63;1.90;;;26.10;99.90;;;;;;5001456;28;20535;-56
2022/09/04 11:17:59;;;;;;;5.32;2.53;;;26.30;99.90;;;;;;5002378;28;20064;-55
2022/09/04 11:20:46;;;;;;;4.20;2.00;;;26.40;99.90;;;;;;5002548;28;20224;-55
2022/09/04 11:23:36;;;;;;;3.65;2.20;;;26.50;99.90;;;;;;5002868;28;20053;-56
2022/09/04 11:26:16;;;;;;;4.88;2.30;;;26.30;99.90;;;;;;5003484;28;20453;-56
2022/09/04 11:29:05;;;;;;;3.63;2.17;;;26.20;99.90;;;;;;5002883;28;20123;-57
2022/09/04 11:32:12;;;;;;;3.78;1.90;;;26.50;99.90;;;;;;5001363;28;20708;-55
2022/09/04 11:34:53;;;;;;;4.15;2.08;;;26.10;99.90;;;;;;5003017;28;20046;-56
2022/09/04 11:37:43;;;;;;;7.60;2.10;;;26.40;99.90;;;;;;5002868;28;20037;-57
2022/09/04 11:40:12;;;;;;;4.80;1.70;;;26.50;99.90;;;;;;5001295;28;20050;-58
2022/09/04 11:42:43;;;;;;;6.95;2.15;;;26.40;99.90;;;;;;5002444;28;20097;-57
2022/09/04 11:45:52;;;;;;;5.85;2.25;;;26.80;99.90;;;;;;5003120;28;20046;-57
2022/09/04 11:48:28;;;;;;;6.25;2.20;;;27.00;99.90;;;;;;5002495;28;20781;-56
2022/09/04 11:51:38;;;;;;;4.78;2.60;;;27.20;99.90;;;;;;5002681;28;20053;-56
2022/09/04 11:54:34;;;;;;;6.68;2.13;;;27.10;99.90;;;;;;5002829;28;20081;-57
2022/09/04 11:57:44;;;;;;;4.43;2.60;;;27.40;99.90;;;;;;5003352;28;20042;-56
2022/09/04 12:00:16;;;;;;;4.45;2.40;;;27.40;99.90;;;;;;5002834;28;20049;-56
2022/09/04 12:03:10;;;;;;;3.97;2.20;;;27.60;99.90;;;;;;5002015;28;20517;-55
2022/09/04 12:05:55;;;;;;;4.78;2.50;;;27.80;99.90;;;;;;5006475;28;20395;-55
2022/09/04 12:08:34;;;;;;;;;;;27.70;99.70;;;;;;5017519;28;20053;-56
2022/09/04 12:11:22;;;;;;;5.38;2.30;;;27.40;99.70;;;;;;5026521;28;19964;-56
2022/09/04 12:13:51;;;;;;;6.18;2.22;;;27.80;99.90;;;;;;5026323;28;20050;-55
2022/09/04 12:16:45;;;;;;;5.55;2.67;;;27.50;99.90;;;;;;5025628;28;20409;-56
2022/09/04 12:19:45;;;;;;;6.10;2.53;;;27.30;99.90;;;;;;5026289;28;20103;-55
2022/09/04 12:22:30;;;;;;;4.97;2.20;;;27.30;99.70;;;;;;5024207;28;20064;-55
2022/09/04 12:25:10;;;;;;;4.15;1.92;;;27.20;99.90;;;;;;5025821;28;20045;-57
2022/09/04 12:27:57;;;;;;;5.25;2.28;;;27.10;99.70;;;;;;5009844;28;20053;-56
2022/09/04 12:30:43;;;;;;;4.82;2.00;;;26.80;99.30;;;;;;5024508;28;20077;-56
2022/09/04 12:33:20;;;;;;;3.10;2.08;;;27.20;99.90;;;;;;5013196;28;20050;-56
2022/09/04 12:36:13;;;;;;;5.80;2.25;;;27.30;99.80;;;;;;5024714;28;20499;-55
2022/09/04 12:38:51;;;;;;;6.05;2.10;;;27.10;99.90;;;;;;5024466;28;20044;-56
2022/09/04 12:41:18;;;;;;;4.07;2.20;;;27.60;99.80;;;;;;5024737;28;20046;-56
2022/09/04 12:44:12;;;;;;;3.75;2.40;;;27.30;99.50;;;;;;5023511;28;20041;-56
2022/09/04 12:46:56;;;;;;;3.23;2.30;;;27.20;99.70;;;;;;5024177;28;20100;-56
2022/09/04 12:49:37;;;;;;;4.20;2.35;;;27.30;99.60;;;;;;5023559;28;20335;-56
2022/09/04 12:52:30;;;;;;;5.90;2.30;;;27.20;99.50;;;;;;5025016;28;20545;-57
2022/09/04 12:55:21;;;;;;;5.40;2.40;;;27.60;99.90;;;;;;5024082;28;20057;-56
2022/09/04 12:57:59;;;;;;;5.30;2.30;;;27.40;99.80;;;;;;5017671;28;20052;-56
2022/09/04 13:00:31;;;;;;;6.18;2.20;;;27.40;99.80;;;;;;5023846;28;20049;-58
2022/09/04 13:03:13;;;;;;;5.20;2.15;;;27.70;99.90;;;;;;5024020;28;20041;-56
2022/09/04 13:06:02;;;;;;;5.30;2.20;;;27.70;99.90;;;;;;5018605;28;20049;-55
2022/09/04 13:08:40;;;;;;;3.45;2.20;;;27.80;99.90;;;;;;5017411;28;20395;-56
2022/09/04 13:11:21;;;;;;;3.50;2.30;;;27.80;99.70;;;;;;5024275;28;20054;-56
2022/09/04 13:14:03;;;;;;;8.13;1.90;;;27.70;99.70;;;;;;5023743;28;20056;-56
2022/09/04 13:16:39;;;;;;;5.05;2.10;;;27.70;99.40;;;;;;5023077;28;20064;-57
2022/09/04 13:19:15;;;;;;;4.15;2.28;;;27.50;99.10;;;;;;5023985;28;20049;-56
2022/09/04 13:22:22;;;;;;;2.90;1.92;;;27.60;99.80;;;;;;5022893;28;20103;-56
2022/09/04 13:25:06;;;;;;;3.33;2.13;;;27.70;99.60;;;;;;5015525;28;20057;-56
2022/09/04 13:27:58;;;;;;;3.97;2.00;;;27.90;99.70;;;;;;5023985;28;20500;-57
2022/09/04 13:30:26;;;;;;;4.85;2.00;;;27.80;98.80;;;;;;5024030;28;20095;-56
2022/09/04 13:33:16;;;;;;;3.85;2.00;;;28.00;99.90;;;;;;5022884;28;20087;-56
2022/09/04 13:36:09;;;;;;;5.95;1.80;;;28.00;99.10;;;;;;5023322;28;20515;-56
2022/09/04 13:38:59;;;;;;;2.20;1.60;;;28.00;99.30;;;;;;5023685;28;20069;-56
2022/09/04 13:41:34;;;;;;;3.20;2.00;;;28.00;99.00;;;;;;5022784;28;20068;-56
2022/09/04 13:44:27;;;;;;;2.95;1.63;;;28.10;98.50;;;;;;5024209;28;20052;-56
2022/09/04 13:47:19;;;;;;;2.88;1.75;;;28.20;98.70;;;;;;5022506;28;20061;-56
2022/09/04 13:50:07;;;;;;;2.70;1.88;;;28.10;98.60;;;;;;5023235;28;20051;-56
2022/09/04 13:52:56;;;;;;;5.43;1.90;;;28.20;98.70;;;;;;5023500;28;20057;-57
2022/09/04 13:55:28;;;;;;;4.78;2.28;;;28.20;98.80;;;;;;5023507;28;20045;-56
2022/09/04 13:58:11;;;;;;;3.35;1.90;;;28.10;98.80;;;;;;5023194;28;20057;-56
2022/09/04 14:00:51;;;;;;;4.53;1.98;;;28.10;99.80;;;;;;5023700;28;20117;-58
2022/09/04 14:03:46;;;;;;;3.65;2.00;;;28.10;99.20;;;;;;5022066;28;20141;-56
2022/09/04 14:06:15;;;;;;;5.10;1.98;;;27.70;99.20;;;;;;5017021;28;20045;-57
2022/09/04 14:08:43;;;;;;;4.97;2.00;;;27.80;99.20;;;;;;5009414;28;20053;-56
2022/09/04 14:11:18;;;;;;;2.63;1.65;;;27.80;99.40;;;;;;5003893;28;20404;-56
2022/09/04 14:14:12;;;;;;;3.05;1.98;;;27.90;99.50;;;;;;5022982;28;20061;-56
2022/09/04 14:16:40;;;;;;;2.70;1.55;;;27.90;99.70;;;;;;5022320;28;20046;-57
2022/09/04 14:19:31;;;;;;;3.45;1.83;;;28.00;99.70;;;;;;5022644;28;20400;-57
2022/09/04 14:22:06;;;;;;;3.53;1.83;;;28.00;99.30;;;;;;5023676;28;20145;-57